Aérodrome :
LOGIN :

S'inscrire | Disclaimer

   EN    FR    IT 

 










Légende :    VFR   VFR Marginal   IFR   IFR Intensif   IFR Très Intensif
Visi : 
Plafond : 
>= 8 km
>= 3000ft
5 à 8 km
1000 à 3000 ft
1500m à 5 km
500 à 1000 ft
800 à 1500m
200 à 500 ft
< 800m
< 200 ft
Symboles :   Orages  Brouillard  Fortes neiges  Fortes précipitations  Vent > 20 kt
SIGMETs :   Divers  Orages  Givrage  Turbulence  Onde Orograph.  Cendres Volcan.






- Altitude de l'aérodrome : 32 ft
- Code IATA : LKZ


EGUL - RAF Lakenheath

DERNIER METAR :
  • 232256Z AUTO 02004KT 9999 CLR 13/11 A2997 RMK AO2 SLP152 T01310110 $

METARs EXPIRÉS :
  • 232156Z AUTO 04003KT 9999 CLR 14/10 A2995 RMK AO2 SLP145 T01390101 $
  • 232056Z AUTO 03007KT 9999 CLR 15/08 A2995 RMK AO2 SLP145 T01480076 55007 $

TAF AMD TAF EGUL
Valide du 23 à 16h jusqu'au 24 à 18h UTC


231612Z 2316/2418 08012KT 9999 BKN020 BKN270 QNH2997INS
BECMG 2319/2320 08012KT 9999 BKN010 BKN270 QNH2997INS
BECMG 2322/2323 07009KT 9999 BKN007 OVC015 QNH2984INS
TEMPO 2403/2407 8000 BR
BECMG 2406/2407 07012G18KT 9999 SCT007 BKN010 QNH2982INS
BECMG 2409/2410 06012KT 9999 FEW007 BKN015 QNH2981INS
BECMG 2411/2412 06012KT 8000 -SHRA SCT010 BKN020 QNH2979INS
TEMPO 2415/2418 6000 -SHRA BKN010 TX22/2411Z TN13/2404Z LAST NO AMDS AFT 2316 NEXT 2604



MET'MAP, la Météo Aéronautique d'un coup d'oeil ! - Copyright ORBIFLY Décembre 2007 - Disclaimer

ORBIFLY MET'MAP TEAM :

Programmation & Développement : Alexandra Zaïnal
Sur une idée originale de : Baudouin d'Aumeries
Assistance à la programmation : Marc-Olivier Méhu
Soutien technique & logistique : Manuel Goepfert

Contact : metmap@orbifly.com




SOURCES & CREDITS :

   NOAA